| time (UTC) | temp C | wind direction | speed KPH | gust KPH | rain 1hr cm | rain 24hr cm | rain mn cm | humidity % | barometer mb |
| 20260905183202 | 19 | 242 | 4.8 | 9.7 | 0.00 | 0.10 | 0.10 | 46 | 993.8 |
| 20260905182703 | 19 | 262 | 4.8 | 9.7 | 0.00 | 0.10 | 0.10 | 46 | 993.8 |
| 20260905182202 | 19 | 246 | 4.8 | 11.3 | 0.00 | 0.10 | 0.10 | 45 | 993.8 |
| 20260905181702 | 20 | 246 | 6.4 | 12.9 | 0.00 | 0.10 | 0.10 | 45 | 993.7 |
| 20260905181202 | 20 | 262 | 4.8 | 8.0 | 0.00 | 0.10 | 0.10 | 44 | 993.7 |
| 20260905180702 | 20 | 219 | 4.8 | 11.3 | 0.00 | 0.10 | 0.10 | 44 | 993.6 |
| 20260905180201 | 20 | 260 | 4.8 | 8.0 | 0.00 | 0.10 | 0.10 | 43 | 993.6 |
| 20260905175701 | 20 | 273 | 4.8 | 14.5 | 0.00 | 0.10 | 0.10 | 43 | 993.5 |
| 20260905175059 | 20 | 239 | 4.8 | 16.1 | 0.00 | 0.10 | 0.10 | 43 | 993.4 |
| 20260905174559 | 20 | 255 | 4.8 | 9.7 | 0.00 | 0.10 | 0.10 | 43 | 993.4 |
| 20260905174059 | 20 | 250 | 8.0 | 17.7 | 0.00 | 0.10 | 0.10 | 42 | 993.3 |
| 20260905173559 | 20 | 272 | 4.8 | 8.0 | 0.00 | 0.10 | 0.10 | 42 | 993.3 |
| 20260905173058 | 20 | 267 | 4.8 | 14.5 | 0.00 | 0.10 | 0.10 | 43 | 993.3 |
| 20260905172457 | 20 | 263 | 4.8 | 11.3 | 0.00 | 0.10 | 0.10 | 43 | 993.3 |
| 20260905171957 | 20 | 246 | 6.4 | 19.3 | 0.00 | 0.10 | 0.10 | 43 | 993.2 |
| 20260905171458 | 20 | 247 | 3.2 | 8.0 | 0.00 | 0.10 | 0.10 | 43 | 993.2 |
| 20260905170957 | 20 | 243 | 4.8 | 6.4 | 0.00 | 0.10 | 0.10 | 43 | 993.1 |
| 20260905170458 | 20 | 240 | 4.8 | 9.7 | 0.00 | 0.10 | 0.10 | 43 | 993.1 |
| 20260905165957 | 20 | 247 | 4.8 | 8.0 | 0.00 | 0.10 | 0.10 | 42 | 993.1 |
| 20260905165457 | 20 | 255 | 4.8 | 14.5 | 0.00 | 0.10 | 0.10 | 42 | 993.0 |
| 20260905164856 | 20 | 256 | 6.4 | 11.3 | 0.00 | 0.10 | 0.10 | 42 | 993.0 |
| 20260905164356 | 20 | 249 | 6.4 | 14.5 | 0.00 | 0.10 | 0.10 | 42 | 993.0 |
| 20260905163856 | 20 | 239 | 4.8 | 9.7 | 0.00 | 0.10 | 0.10 | 41 | 992.9 |
| 20260905163256 | 21 | 244 | 4.8 | 11.3 | 0.00 | 0.10 | 0.10 | 41 | 992.9 |
| 20260905162555 | 21 | 232 | 4.8 | 9.7 | 0.00 | 0.10 | 0.10 | 41 | 992.8 |
| 20260905162055 | 21 | 239 | 6.4 | 11.3 | 0.00 | 0.10 | 0.10 | 41 | 992.8 |
| 20260905161454 | 21 | 255 | 4.8 | 14.5 | 0.00 | 0.10 | 0.10 | 41 | 992.7 |
| 20260905160953 | 21 | 251 | 6.4 | 11.3 | 0.00 | 0.10 | 0.10 | 41 | 992.5 |
| 20260905160454 | 21 | 250 | 8.0 | 16.1 | 0.00 | 0.10 | 0.10 | 42 | 992.5 |
| 20260905155953 | 21 | 243 | 6.4 | 11.3 | 0.00 | 0.10 | 0.10 | 42 | 992.4 |
| 20260905155453 | 21 | 217 | 6.4 | 11.3 | 0.00 | 0.10 | 0.10 | 42 | 992.4 |
| 20260905154952 | 21 | 266 | 8.0 | 16.1 | 0.00 | 0.10 | 0.10 | 41 | 992.4 |
| 20260905154452 | 21 | 212 | 6.4 | 16.1 | 0.00 | 0.10 | 0.10 | 41 | 992.3 |
| 20260905153952 | 22 | 246 | 9.7 | 17.7 | 0.00 | 0.10 | 0.10 | 41 | 992.3 |
| 20260905153453 | 22 | 294 | 4.8 | 9.7 | 0.00 | 0.10 | 0.10 | 41 | 992.3 |
| 20260905152952 | 22 | 260 | 9.7 | 19.3 | 0.00 | 0.10 | 0.10 | 41 | 992.2 |
| 20260905152452 | 22 | 244 | 8.0 | 17.7 | 0.00 | 0.10 | 0.10 | 40 | 992.1 |
| 20260905151952 | 22 | 275 | 6.4 | 11.3 | 0.00 | 0.10 | 0.10 | 40 | 992.1 |
| 20260905151451 | 22 | 249 | 6.4 | 16.1 | 0.00 | 0.10 | 0.10 | 40 | 992.0 |
| 20260905150952 | 22 | 272 | 8.0 | 17.7 | 0.00 | 0.10 | 0.10 | 39 | 992.1 |
| 20260905150252 | 22 | 217 | 8.0 | 16.1 | 0.00 | 0.10 | 0.10 | 39 | 992.1 |
| 20260905145751 | 22 | 275 | 8.0 | 16.1 | 0.00 | 0.10 | 0.10 | 39 | 992.0 |
| 20260905145050 | 22 | 280 | 6.4 | 11.3 | 0.00 | 0.10 | 0.10 | 39 | 992.0 |
| 20260905144550 | 22 | 266 | 6.4 | 14.5 | 0.00 | 0.10 | 0.10 | 39 | 991.9 |
| 20260905144050 | 22 | 272 | 8.0 | 16.1 | 0.00 | 0.10 | 0.10 | 41 | 991.9 |
| 20260905143449 | 22 | 291 | 8.0 | 14.5 | 0.00 | 0.10 | 0.10 | 41 | 991.9 |
| 20260905142949 | 22 | 276 | 9.7 | 17.7 | 0.00 | 0.10 | 0.10 | 41 | 991.9 |
| 20260905142448 | 22 | 233 | 8.0 | 17.7 | 0.00 | 0.10 | 0.10 | 41 | 991.9 |
| 20260905141948 | 22 | 230 | 8.0 | 14.5 | 0.00 | 0.10 | 0.10 | 40 | 991.9 |
| 20260905141449 | 22 | 237 | 8.0 | 16.1 | 0.00 | 0.10 | 0.10 | 38 | 991.8 |
| 20260905140948 | 22 | 262 | 8.0 | 17.7 | 0.00 | 0.10 | 0.10 | 37 | 991.9 |
| 20260905140448 | 22 | 246 | 8.0 | 17.7 | 0.00 | 0.10 | 0.10 | 36 | 991.9 |
| 20260905135948 | 22 | 269 | 6.4 | 12.9 | 0.00 | 0.10 | 0.10 | 37 | 992.0 |
| 20260905135247 | 22 | 248 | 6.4 | 12.9 | 0.00 | 0.10 | 0.10 | 40 | 991.9 |
| 20260905134747 | 21 | 276 | 6.4 | 9.7 | 0.00 | 0.10 | 0.10 | 41 | 992.0 |
| 20260905134246 | 21 | 274 | 8.0 | 17.7 | 0.00 | 0.10 | 0.10 | 41 | 991.9 |
| 20260905133746 | 22 | 263 | 6.4 | 16.1 | 0.00 | 0.10 | 0.10 | 39 | 992.0 |
| 20260905133045 | 22 | 221 | 9.7 | 17.7 | 0.00 | 0.10 | 0.10 | 37 | 992.0 |
| 20260905132546 | 22 | 240 | 6.4 | 16.1 | 0.00 | 0.10 | 0.10 | 38 | 991.9 |
| 20260905132045 | 22 | 234 | 6.4 | 11.3 | 0.00 | 0.10 | 0.10 | 38 | 992.0 |
| 20260905131444 | 22 | 228 | 8.0 | 17.7 | 0.00 | 0.10 | 0.10 | 38 | 991.9 |
| 20260905130844 | 22 | 221 | 8.0 | 16.1 | 0.00 | 0.10 | 0.10 | 40 | 992.1 |
| 20260905130356 | 22 | 253 | 6.4 | 11.3 | 0.00 | 0.10 | 0.10 | 41 | 992.2 |
| 20260905125843 | 22 | 242 | 6.4 | 16.1 | 0.00 | 0.10 | 0.10 | 43 | 992.1 |
| 20260905125343 | 21 | 265 | 8.0 | 16.1 | 0.00 | 0.10 | 0.10 | 43 | 992.1 |
| 20260905124842 | 21 | 262 | 8.0 | 16.1 | 0.00 | 0.10 | 0.10 | 43 | 992.2 |
| 20260905124242 | 21 | 283 | 8.0 | 16.1 | 0.00 | 0.10 | 0.10 | 43 | 992.3 |
| 20260905123641 | 21 | 289 | 8.0 | 16.1 | 0.00 | 0.10 | 0.10 | 45 | 992.3 |
| 20260905123141 | 21 | 264 | 8.0 | 16.1 | 0.00 | 0.10 | 0.10 | 46 | 992.4 |
| 20260905122540 | 21 | 262 | 9.7 | 17.7 | 0.00 | 0.10 | 0.10 | 46 | 992.4 |
| 20260905122040 | 21 | 290 | 6.4 | 9.7 | 0.00 | 0.10 | 0.10 | 48 | 992.3 |
| 20260905121540 | 21 | 273 | 6.4 | 11.3 | 0.00 | 0.10 | 0.10 | 47 | 992.4 |
| 20260905121042 | 21 | 245 | 6.4 | 16.1 | 0.00 | 0.10 | 0.10 | 46 | 992.5 |
| 20260905120539 | 21 | 227 | 8.0 | 17.7 | 0.00 | 0.10 | 0.10 | 46 | 992.4 |
| 20260905120039 | 21 | 275 | 6.4 | 16.1 | 0.00 | 0.10 | 0.10 | 47 | 992.4 |
| 20260905115539 | 21 | 217 | 9.7 | 19.3 | 0.00 | 0.10 | 0.10 | 48 | 992.4 |
| 20260905115039 | 21 | 275 | 8.0 | 16.1 | 0.00 | 0.10 | 0.10 | 48 | 992.5 |
| 20260905114538 | 20 | 264 | 6.4 | 17.7 | 0.00 | 0.10 | 0.10 | 49 | 992.4 |
| 20260905113938 | 21 | 291 | 4.8 | 17.7 | 0.00 | 0.10 | 0.10 | 49 | 992.4 |
| 20260905113337 | 21 | 246 | 8.0 | 16.1 | 0.00 | 0.10 | 0.10 | 48 | 992.5 |
| 20260905112838 | 21 | 257 | 6.4 | 16.1 | 0.00 | 0.10 | 0.10 | 49 | 992.4 |
| 20260905112337 | 21 | 298 | 4.8 | 8.0 | 0.00 | 0.10 | 0.10 | 50 | 992.4 |
| 20260905111837 | 20 | 261 | 8.0 | 14.5 | 0.00 | 0.10 | 0.10 | 51 | 992.5 |
| 20260905111337 | 20 | 227 | 8.0 | 17.7 | 0.00 | 0.10 | 0.10 | 50 | 992.5 |
| 20260905110837 | 20 | 266 | 8.0 | 16.1 | 0.00 | 0.10 | 0.10 | 51 | 992.5 |
| 20260905110337 | 20 | 291 | 6.4 | 11.3 | 0.00 | 0.10 | 0.10 | 54 | 992.4 |
| 20260905105837 | 20 | 278 | 8.0 | 14.5 | 0.00 | 0.10 | 0.10 | 54 | 992.5 |
| 20260905105236 | 20 | 269 | 8.0 | 16.1 | 0.00 | 0.10 | 0.10 | 52 | 992.4 |
| 20260905104736 | 20 | 268 | 8.0 | 16.1 | 0.00 | 0.10 | 0.10 | 52 | 992.4 |
| 20260905104136 | 20 | 265 | 6.4 | 11.3 | 0.00 | 0.10 | 0.10 | 52 | 992.4 |
| 20260905103636 | 20 | 251 | 6.4 | 14.5 | 0.00 | 0.10 | 0.10 | 53 | 992.4 |
| 20260905103136 | 20 | 274 | 8.0 | 17.7 | 0.00 | 0.10 | 0.10 | 52 | 992.4 |
| 20260905102635 | 20 | 227 | 8.0 | 19.3 | 0.00 | 0.10 | 0.10 | 53 | 992.4 |
| 20260905102135 | 20 | 247 | 8.0 | 17.7 | 0.00 | 0.10 | 0.10 | 53 | 992.4 |
| 20260905101434 | 20 | 245 | 9.7 | 19.3 | 0.00 | 0.10 | 0.10 | 53 | 992.4 |
| 20260905100833 | 20 | 238 | 8.0 | 16.1 | 0.00 | 0.10 | 0.10 | 54 | 992.4 |
| 20260905100333 | 20 | 245 | 8.0 | 14.5 | 0.00 | 0.10 | 0.10 | 54 | 992.3 |
| 20260905095732 | 20 | 235 | 8.0 | 16.1 | 0.00 | 0.10 | 0.10 | 55 | 992.3 |
| 20260905095232 | 19 | 244 | 6.4 | 14.5 | 0.00 | 0.10 | 0.10 | 57 | 992.3 |
| 20260905094732 | 19 | 249 | 6.4 | 16.1 | 0.00 | 0.10 | 0.10 | 56 | 992.4 |
| 20260905094232 | 19 | 232 | 8.0 | 16.1 | 0.00 | 0.10 | 0.10 | 55 | 992.4 |
| 20260905093732 | 19 | 232 | 6.4 | 11.3 | 0.00 | 0.10 | 0.10 | 59 | 992.5 |
| 20260905093232 | 18 | 239 | 8.0 | 11.3 | 0.00 | 0.10 | 0.10 | 62 | 992.4 |
| 20260905092732 | 18 | 253 | 8.0 | 19.3 | 0.00 | 0.10 | 0.10 | 61 | 992.4 |
| 20260905092231 | 18 | 254 | 6.4 | 16.1 | 0.00 | 0.10 | 0.10 | 61 | 992.5 |
| 20260905091429 | 18 | 234 | 6.4 | 16.1 | 0.00 | 0.10 | 0.10 | 62 | 992.6 |
| 20260905090829 | 18 | 236 | 8.0 | 16.1 | 0.00 | 0.10 | 0.10 | 60 | 992.5 |
| 20260905090329 | 19 | 230 | 6.4 | 14.5 | 0.00 | 0.10 | 0.10 | 59 | 992.4 |
| 20260905085829 | 19 | 257 | 8.0 | 14.5 | 0.00 | 0.10 | 0.10 | 58 | 992.4 |
| 20260905085328 | 18 | 238 | 8.0 | 16.1 | 0.00 | 0.10 | 0.10 | 59 | 992.4 |
| 20260905084828 | 18 | 256 | 6.4 | 16.1 | 0.00 | 0.10 | 0.10 | 61 | 992.4 |
| 20260905084328 | 18 | 249 | 8.0 | 16.1 | 0.00 | 0.10 | 0.10 | 63 | 992.3 |
| 20260905083828 | 18 | 277 | 6.4 | 16.1 | 0.00 | 0.10 | 0.10 | 63 | 992.3 |
| 20260905083328 | 18 | 286 | 8.0 | 17.7 | 0.00 | 0.10 | 0.10 | 64 | 992.1 |
| 20260905082827 | 18 | 232 | 4.8 | 9.7 | 0.00 | 0.10 | 0.10 | 65 | 992.1 |
| 20260905082327 | 18 | 237 | 8.0 | 17.7 | 0.00 | 0.10 | 0.10 | 66 | 992.1 |
| 20260905081827 | 18 | 252 | 8.0 | 16.1 | 0.00 | 0.10 | 0.10 | 67 | 992.2 |
| 20260905081327 | 17 | 231 | 6.4 | 11.3 | 0.00 | 0.10 | 0.10 | 68 | 992.2 |
| 20260905080727 | 17 | 253 | 3.2 | 9.7 | 0.00 | 0.10 | 0.10 | 71 | 992.3 |
| 20260905080126 | 17 | 240 | 6.4 | 12.9 | 0.00 | 0.10 | 0.10 | 72 | 992.3 |
| 20260905075626 | 17 | 250 | 6.4 | 9.7 | 0.00 | 0.10 | 0.10 | 73 | 992.3 |
| 20260905075126 | 17 | 250 | 4.8 | 9.7 | 0.00 | 0.10 | 0.10 | 73 | 992.3 |
| 20260905074626 | 16 | 256 | 4.8 | 9.7 | 0.00 | 0.10 | 0.10 | 75 | 992.4 |
| 20260905074125 | 16 | 228 | 4.8 | 8.0 | 0.00 | 0.10 | 0.10 | 76 | 992.3 |
| 20260905073633 | 16 | 237 | 3.2 | 12.9 | 0.00 | 0.10 | 0.10 | 77 | 992.3 |
| 20260905073125 | 16 | 226 | 3.2 | 6.4 | 0.00 | 0.10 | 0.10 | 79 | 992.2 |
| 20260905072625 | 16 | 245 | 4.8 | 9.7 | 0.00 | 0.10 | 0.10 | 80 | 992.2 |
| 20260905072125 | 16 | 238 | 4.8 | 11.3 | 0.00 | 0.10 | 0.10 | 79 | 992.2 |
| 20260905071625 | 16 | 239 | 4.8 | 11.3 | 0.00 | 0.10 | 0.10 | 78 | 992.2 |
| 20260905071125 | 16 | 253 | 3.2 | 6.4 | 0.00 | 0.10 | 0.10 | 78 | 992.2 |
| 20260905070625 | 16 | 244 | 4.8 | 9.7 | 0.00 | 0.10 | 0.10 | 77 | 992.2 |
| 20260905070125 | 16 | 254 | 3.2 | 4.8 | 0.00 | 0.10 | 0.10 | 76 | 992.1 |
| 20260905065524 | 15 | 242 | 4.8 | 9.7 | 0.00 | 0.10 | 0.10 | 76 | 992.0 |
| 20260905065024 | 15 | 243 | 3.2 | 8.0 | 0.00 | 0.10 | 0.10 | 76 | 991.9 |
| 20260905064423 | 15 | 247 | 4.8 | 8.0 | 0.00 | 0.10 | 0.10 | 76 | 991.7 |
| 20260905063923 | 15 | 263 | 3.2 | 9.7 | 0.00 | 0.10 | 0.10 | 76 | 991.8 |
| 20260905063423 | 15 | 248 | 3.2 | 6.4 | 0.00 | 0.10 | 0.10 | 77 | 991.8 |
| 20260905062923 | 15 | 262 | 3.2 | 8.0 | 0.00 | 0.10 | 0.10 | 78 | 991.8 |
| 20260905062422 | 15 | 234 | 4.8 | 6.4 | 0.00 | 0.10 | 0.10 | 79 | 991.7 |
| 20260905061922 | 15 | 231 | 3.2 | 6.4 | 0.00 | 0.10 | 0.10 | 79 | 991.6 |
| 20260905061422 | 15 | 241 | 3.2 | 8.0 | 0.00 | 0.10 | 0.10 | 79 | 991.6 |
| 20260905060821 | 15 | 237 | 1.6 | 4.8 | 0.00 | 0.10 | 0.10 | 79 | 991.4 |
| 20260905060220 | 15 | 220 | 1.6 | 4.8 | 0.00 | 0.10 | 0.10 | 78 | 991.4 |
| 20260905055720 | 15 | 239 | 3.2 | 8.0 | 0.00 | 0.10 | 0.10 | 78 | 991.5 |
| 20260905055220 | 15 | 244 | 3.2 | 6.4 | 0.00 | 0.10 | 0.10 | 78 | 991.4 |
| 20260905054720 | 15 | 252 | 3.2 | 6.4 | 0.00 | 0.10 | 0.10 | 77 | 991.3 |
| 20260905054220 | 15 | 244 | 1.6 | 4.8 | 0.00 | 0.10 | 0.10 | 77 | 991.3 |
| 20260905053619 | 15 | 256 | 3.2 | 6.4 | 0.00 | 0.10 | 0.10 | 77 | 991.2 |
| 20260905053119 | 15 | 252 | 3.2 | 4.8 | 0.00 | 0.10 | 0.10 | 77 | 991.2 |
| 20260905052619 | 15 | 246 | 3.2 | 6.4 | 0.00 | 0.10 | 0.10 | 76 | 990.7 |
| 20260905052119 | 15 | 219 | 3.2 | 6.4 | 0.00 | 0.10 | 0.10 | 77 | 990.7 |
| 20260905051618 | 15 | 245 | 4.8 | 8.0 | 0.00 | 0.10 | 0.10 | 77 | 991.0 |
| 20260905051118 | 15 | 264 | 1.6 | 6.4 | 0.00 | 0.10 | 0.10 | 77 | 991.0 |
| 20260905050618 | 15 | 250 | 3.2 | 6.4 | 0.00 | 0.10 | 0.10 | 76 | 991.1 |
| 20260905050118 | 15 | 241 | 3.2 | 6.4 | 0.00 | 0.10 | 0.10 | 77 | 991.0 |
| 20260905045618 | 15 | 290 | 3.2 | 9.7 | 0.03 | 0.10 | 0.10 | 76 | 991.1 |
| 20260905045017 | 16 | 278 | 4.8 | 11.3 | 0.03 | 0.10 | 0.10 | 74 | 991.1 |
| 20260905044417 | 16 | 271 | 3.2 | 6.4 | 0.03 | 0.10 | 0.10 | 73 | 990.5 |
| 20260905043916 | 16 | 236 | 4.8 | 9.7 | 0.03 | 0.10 | 0.10 | 73 | 990.2 |
| 20260905043416 | 16 | 237 | 4.8 | 8.0 | 0.03 | 0.10 | 0.10 | 74 | 990.2 |
| 20260905042916 | 16 | 262 | 3.2 | 8.0 | 0.03 | 0.10 | 0.10 | 74 | 990.4 |
| 20260905042416 | 16 | 266 | 3.2 | 8.0 | 0.03 | 0.10 | 0.10 | 74 | 990.3 |
| 20260905041916 | 16 | 241 | 3.2 | 6.4 | 0.03 | 0.10 | 0.10 | 75 | 990.2 |
| 20260905041416 | 16 | 257 | 4.8 | 9.7 | 0.03 | 0.10 | 0.10 | 75 | 990.2 |
| 20260905040915 | 16 | 269 | 3.2 | 9.7 | 0.03 | 0.10 | 0.10 | 76 | 990.1 |
| 20260905040415 | 16 | 258 | 4.8 | 11.3 | 0.03 | 0.10 | 0.10 | 76 | 990.3 |
| 20260905035915 | 16 | 234 | 4.8 | 11.3 | 0.03 | 0.10 | 0.10 | 77 | 990.2 |
| 20260905035415 | 16 | 252 | 3.2 | 6.4 | 0.00 | 0.08 | 0.08 | 77 | 990.2 |
| 20260905034915 | 16 | 273 | 3.2 | 6.4 | 0.00 | 0.08 | 0.08 | 76 | 990.2 |
| 20260905034415 | 16 | 230 | 6.4 | 9.7 | 0.00 | 0.08 | 0.08 | 76 | 989.7 |
| 20260905033915 | 16 | 228 | 6.4 | 11.3 | 0.00 | 0.08 | 0.08 | 76 | 989.7 |
| 20260905033415 | 16 | 229 | 4.8 | 9.7 | 0.00 | 0.08 | 0.08 | 78 | 989.7 |
| 20260905032914 | 16 | 232 | 3.2 | 8.0 | 0.00 | 0.08 | 0.08 | 79 | 989.6 |
| 20260905032414 | 16 | 264 | 3.2 | 9.7 | 0.00 | 0.08 | 0.08 | 80 | 989.5 |
| 20260905031914 | 16 | 240 | 3.2 | 6.4 | 0.00 | 0.08 | 0.08 | 81 | 989.5 |
| 20260905031414 | 16 | 250 | 1.6 | 6.4 | 0.00 | 0.08 | 0.08 | 81 | 989.5 |
| 20260905030914 | 16 | 240 | 3.2 | 6.4 | 0.00 | 0.08 | 0.08 | 81 | 989.4 |
| 20260905030414 | 16 | 226 | 1.6 | 4.8 | 0.00 | 0.08 | 0.08 | 82 | 989.2 |
| 20260905025713 | 16 | 255 | 1.6 | 6.4 | 0.00 | 0.08 | 0.08 | 82 | 989.3 |
| 20260905025213 | 16 | 198 | 1.6 | 4.8 | 0.00 | 0.08 | 0.08 | 81 | 989.2 |
| 20260905024512 | 16 | 222 | 1.6 | 3.2 | 0.00 | 0.08 | 0.08 | 81 | 988.8 |
| 20260905023911 | 16 | 223 | 1.6 | 6.4 | 0.00 | 0.08 | 0.08 | 81 | 989.1 |
| 20260905023411 | 16 | 206 | 1.6 | 3.2 | 0.00 | 0.08 | 0.08 | 80 | 989.0 |
| 20260905022911 | 16 | 208 | 3.2 | 4.8 | 0.00 | 0.08 | 0.08 | 80 | 989.1 |
| 20260905022411 | 16 | 210 | 1.6 | 4.8 | 0.00 | 0.08 | 0.08 | 80 | 989.1 |
| 20260905021910 | 16 | 237 | 3.2 | 8.0 | 0.00 | 0.08 | 0.08 | 79 | 989.2 |
| 20260905021410 | 16 | 277 | 1.6 | 6.4 | 0.00 | 0.08 | 0.08 | 80 | 989.3 |
| 20260905020808 | 16 | 303 | 1.6 | 4.8 | 0.00 | 0.08 | 0.08 | 80 | 989.3 |
| 20260905020309 | 16 | 302 | 6.4 | 12.9 | 0.00 | 0.08 | 0.08 | 79 | 989.3 |
| 20260905015809 | 16 | 258 | 4.8 | 11.3 | 0.00 | 0.08 | 0.08 | 81 | 989.8 |
| 20260905015208 | 16 | 276 | 3.2 | 8.0 | 0.00 | 0.08 | 0.08 | 81 | 989.6 |
| 20260905014607 | 16 | 254 | 3.2 | 6.4 | 0.03 | 0.08 | 0.08 | 82 | 989.4 |
| 20260905014107 | 16 | 264 | 3.2 | 9.7 | 0.03 | 0.08 | 0.08 | 82 | 989.3 |
| 20260905013607 | 16 | 287 | 1.6 | 4.8 | 0.08 | 0.08 | 0.08 | 82 | 989.3 |
| 20260905013107 | 16 | 273 | 1.6 | 3.2 | 0.08 | 0.08 | 0.08 | 83 | 989.2 |
| 20260905012607 | 16 | 305 | 0.0 | 3.2 | 0.08 | 0.08 | 0.08 | 83 | 989.1 |
| 20260905012107 | 16 | 308 | 0.0 | 0.0 | 0.08 | 0.08 | 0.08 | 82 | 988.9 |
| 20260905011607 | 16 | 255 | 1.6 | 4.8 | 0.08 | 0.08 | 0.08 | 82 | 988.8 |
| 20260905011106 | 16 | 244 | 1.6 | 3.2 | 0.08 | 0.08 | 0.08 | 81 | 988.8 |
| 20260905010606 | 16 | 299 | 1.6 | 6.4 | 0.08 | 0.08 | 0.08 | 81 | 988.9 |
| 20260905010106 | 16 | 264 | 3.2 | 6.4 | 0.08 | 0.08 | 0.08 | 81 | 988.9 |
| 20260905005605 | 16 | 232 | 3.2 | 6.4 | 0.08 | 0.08 | 0.08 | 81 | 988.9 |
| 20260905005105 | 16 | 265 | 4.8 | 9.7 | 0.08 | 0.08 | 0.08 | 79 | 988.9 |
| 20260905004606 | 16 | 259 | 4.8 | 12.9 | 0.05 | 0.05 | 0.05 | 78 | 989.0 |
| 20260905004105 | 17 | 281 | 4.8 | 11.3 | 0.05 | 0.05 | 0.05 | 75 | 989.0 |
| 20260905003605 | 18 | 287 | 4.8 | 9.7 | 0.00 | 0.00 | 0.00 | 71 | 988.9 |
| 20260905003105 | 18 | 272 | 3.2 | 9.7 | 0.00 | 0.00 | 0.00 | 69 | 988.9 |
| 20260905002504 | 18 | 307 | 6.4 | 12.9 | 0.00 | 0.00 | 0.00 | 69 | 988.3 |
| 20260905001904 | 18 | 313 | 4.8 | 9.7 | 0.00 | 0.00 | 0.00 | 68 | 988.6 |
| 20260905001403 | 18 | 320 | 3.2 | 6.4 | 0.00 | 0.00 | 0.00 | 67 | 988.7 |
| 20260905000803 | 18 | 281 | 4.8 | 9.7 | 0.00 | 0.00 | 0.00 | 67 | 988.3 |
| 20260905000303 | 18 | 340 | 6.4 | 14.5 | 0.00 | 0.00 | 0.00 | 65 | 988.3 |
| 20260904235802 | 18 | 286 | 4.8 | 8.0 | 0.00 | 0.00 | 0.00 | 65 | 988.6 |
| 20260904235305 | 18 | 292 | 4.8 | 11.3 | 0.00 | 0.00 | 0.00 | 64 | 988.3 |
| 20260904234802 | 18 | 294 | 8.0 | 16.1 | 0.00 | 0.00 | 0.00 | 64 | 988.3 |
| 20260904234302 | 18 | 301 | 8.0 | 16.1 | 0.00 | 0.00 | 0.00 | 63 | 988.3 |
| 20260904233701 | 18 | 234 | 4.8 | 8.0 | 0.00 | 0.00 | 0.00 | 63 | 988.0 |
| 20260904233201 | 19 | 294 | 4.8 | 11.3 | 0.00 | 0.00 | 0.00 | 63 | 988.0 |
| 20260904232701 | 19 | 281 | 6.4 | 16.1 | 0.00 | 0.00 | 0.00 | 63 | 988.3 |
| 20260904232000 | 19 | 301 | 8.0 | 16.1 | 0.00 | 0.00 | 0.00 | 62 | 988.1 |
| 20260904231500 | 19 | 289 | 6.4 | 14.5 | 0.00 | 0.00 | 0.00 | 61 | 988.1 |
| 20260904230959 | 20 | 299 | 8.0 | 16.1 | 0.00 | 0.00 | 0.00 | 61 | 987.9 |
| 20260904230459 | 20 | 290 | 6.4 | 16.1 | 0.00 | 0.00 | 0.00 | 61 | 987.9 |
| 20260904225958 | 20 | 313 | 4.8 | 12.9 | 0.00 | 0.00 | 0.00 | 60 | 987.7 |
| 20260904225458 | 20 | 301 | 8.0 | 16.1 | 0.00 | 0.00 | 0.00 | 60 | 987.7 |
| 20260904224958 | 20 | 306 | 8.0 | 14.5 | 0.00 | 0.00 | 0.00 | 59 | 987.6 |
| 20260904224458 | 20 | 270 | 4.8 | 9.7 | 0.00 | 0.00 | 0.00 | 58 | 987.8 |
| 20260904223958 | 20 | 317 | 9.7 | 19.3 | 0.00 | 0.00 | 0.00 | 58 | 987.6 |
| 20260904223458 | 20 | 288 | 8.0 | 19.3 | 0.00 | 0.00 | 0.00 | 57 | 987.5 |
| 20260904222958 | 20 | 311 | 9.7 | 17.7 | 0.00 | 0.00 | 0.00 | 57 | 987.4 |
| 20260904222458 | 20 | 328 | 6.4 | 17.7 | 0.00 | 0.00 | 0.00 | 57 | 987.3 |
| 20260904221958 | 21 | 295 | 8.0 | 17.7 | 0.00 | 0.00 | 0.00 | 60 | 987.2 |
| 20260904221458 | 21 | 286 | 6.4 | 16.1 | 0.00 | 0.00 | 0.00 | 63 | 987.0 |
| 20260904220958 | 21 | 305 | 9.7 | 17.7 | 0.00 | 0.00 | 0.00 | 63 | 986.7 |
| 20260904220458 | 21 | 298 | 9.7 | 17.7 | 0.00 | 0.00 | 0.00 | 63 | 986.6 |
| 20260904215857 | 21 | 290 | 8.0 | 16.1 | 0.00 | 0.00 | 0.00 | 62 | 986.6 |
| 20260904215357 | 22 | 294 | 8.0 | 17.7 | 0.00 | 0.00 | 0.00 | 62 | 986.6 |
| 20260904214757 | 22 | 299 | 9.7 | 20.9 | 0.00 | 0.00 | 0.00 | 61 | 986.3 |
| 20260904214257 | 22 | 272 | 8.0 | 14.5 | 0.00 | 0.00 | 0.00 | 60 | 986.2 |
| 20260904213757 | 22 | 285 | 4.8 | 11.3 | 0.00 | 0.00 | 0.00 | 60 | 986.0 |
| 20260904213256 | 22 | 302 | 4.8 | 9.7 | 0.00 | 0.00 | 0.00 | 59 | 986.0 |
| 20260904212756 | 23 | 306 | 6.4 | 16.1 | 0.00 | 0.00 | 0.00 | 58 | 985.9 |
| 20260904212256 | 23 | 271 | 6.4 | 16.1 | 0.00 | 0.00 | 0.00 | 56 | 985.8 |
| 20260904211756 | 23 | 283 | 6.4 | 12.9 | 0.00 | 0.00 | 0.00 | 54 | 985.6 |
| 20260904211256 | 23 | 254 | 6.4 | 11.3 | 0.00 | 0.00 | 0.00 | 54 | 985.0 |
| 20260904210756 | 23 | 189 | 4.8 | 9.7 | 0.00 | 0.00 | 0.00 | 55 | 984.5 |
| 20260904210256 | 23 | 236 | 4.8 | 11.3 | 0.00 | 0.00 | 0.00 | 55 | 984.5 |
| 20260904205756 | 23 | 212 | 8.0 | 16.1 | 0.00 | 0.00 | 0.00 | 55 | 984.4 |
| 20260904205256 | 23 | 198 | 6.4 | 9.7 | 0.00 | 0.00 | 0.00 | 55 | 984.6 |
| 20260904204756 | 23 | 208 | 4.8 | 11.3 | 0.00 | 0.00 | 0.00 | 56 | 984.7 |
| 20260904204255 | 23 | 194 | 6.4 | 11.3 | 0.00 | 0.00 | 0.00 | 56 | 984.7 |
| 20260904203655 | 23 | 194 | 6.4 | 12.9 | 0.00 | 0.00 | 0.00 | 56 | 984.5 |
| 20260904203155 | 23 | 195 | 6.4 | 11.3 | 0.00 | 0.00 | 0.00 | 56 | 984.6 |
| 20260904202654 | 23 | 192 | 6.4 | 14.5 | 0.00 | 0.00 | 0.00 | 55 | 984.6 |
| 20260904202153 | 23 | 202 | 6.4 | 9.7 | 0.00 | 0.00 | 0.00 | 55 | 984.5 |
| 20260904201654 | 23 | 200 | 6.4 | 14.5 | 0.00 | 0.00 | 0.00 | 55 | 984.6 |
| 20260904201154 | 23 | 202 | 4.8 | 14.5 | 0.00 | 0.00 | 0.00 | 56 | 984.7 |
| 20260904200653 | 22 | 200 | 3.2 | 6.4 | 0.00 | 0.00 | 0.00 | 57 | 984.7 |
| 20260904200053 | 22 | 230 | 3.2 | 6.4 | 0.00 | 0.00 | 0.00 | 59 | 984.8 |
| 20260904195552 | 22 | 191 | 3.2 | 6.4 | 0.00 | 0.00 | 0.00 | 59 | 984.8 |
| 20260904195052 | 22 | 214 | 4.8 | 9.7 | 0.00 | 0.00 | 0.00 | 59 | 984.8 |
| 20260904194552 | 22 | 202 | 4.8 | 11.3 | 0.00 | 0.00 | 0.00 | 59 | 984.8 |
| 20260904193951 | 22 | 189 | 4.8 | 8.0 | 0.00 | 0.00 | 0.00 | 59 | 984.9 |
| 20260904193351 | 22 | 199 | 4.8 | 6.4 | 0.00 | 0.00 | 0.00 | 59 | 985.0 |
| 20260904192850 | 23 | 205 | 4.8 | 9.7 | 0.00 | 0.00 | 0.00 | 58 | 985.0 |
| 20260904192351 | 23 | 211 | 6.4 | 11.3 | 0.00 | 0.00 | 0.00 | 58 | 985.0 |
| 20260904191850 | 23 | 187 | 4.8 | 11.3 | 0.00 | 0.00 | 0.00 | 58 | 985.0 |
| 20260904191350 | 23 | 180 | 4.8 | 9.7 | 0.00 | 0.00 | 0.00 | 58 | 985.0 |
| 20260904190850 | 23 | 211 | 6.4 | 9.7 | 0.00 | 0.00 | 0.00 | 58 | 985.1 |
| 20260904190349 | 23 | 204 | 6.4 | 14.5 | 0.00 | 0.00 | 0.00 | 57 | 985.2 |
| 20260904185850 | 23 | 195 | 6.4 | 9.7 | 0.00 | 0.00 | 0.00 | 57 | 985.3 |
| 20260904185350 | 23 | 203 | 6.4 | 9.7 | 0.00 | 0.00 | 0.00 | 57 | 985.3 |
| 20260904184849 | 23 | 197 | 4.8 | 9.7 | 0.00 | 0.00 | 0.00 | 58 | 985.3 |
| 20260904184248 | 23 | 196 | 3.2 | 6.4 | 0.00 | 0.00 | 0.00 | 59 | 985.4 |
| 20260904183748 | 23 | 180 | 4.8 | 9.7 | 0.00 | 0.00 | 0.00 | 59 | 985.5 |